広島空港の過去48時間の天気

広島空港 (New hiroshima)

現在時刻: 1/24 09:48 JST (1/24 00:48 UTC) 以下の時間は現地時間です。

過去48時間のMETAR気象情報
時間 風向 風速(m/s) 視程 気温(℃) 湿度(%) 気圧(hPa) 天気現象
24 09:00 3 10km以上 10 76 1024
24 08:00 2 10km以上 9 81 1024
24 07:00 3 10km以上 9 81 1024
24 06:10 北西 2 10km以上 9 87 1022
23 22:00 不定 1 4000m 10 87 1021 散在した霧 もや
23 21:00 1 3000m 9 93 1020 散在した霧 もや
23 20:39 不定 1 2000m 9 93 1020 散在した霧 もや
23 20:29 東南東 1 2000m 9 93 1020 散在した霧 もや
23 20:00 不定 1 3000m 9 93 1020 散在した霧 もや
23 19:48 不定 1 3000m 9 93 1020 散在した霧 もや
23 19:32 不定 1 1600m 9 93 1020 散在した霧 もや
23 19:24 不定 1 800m 9 93 1020
23 19:10 静穏 0 500m 9 93 1020
23 19:00 静穏 0 500m 9 93 1020
23 18:41 南東 1 200m 9 93 1019
23 18:33 南東 2 200m 9 93 1019
23 18:30 東南東 2 300m 9 93 1019
23 18:00 静穏 0 100m 9 93 1019
23 17:42 不定 1 400m 9 93 1019
23 17:12 南東 2 300m 9 93 1018
23 17:00 東南東 2 500m 9 93 1018
23 16:50 南東 2 500m 9 93 1018
23 16:37 不定 1 500m 9 93 1018 弱いしゅう雨 霧
23 16:27 東北東 2 300m 9 93 1018
23 16:00 不定 1 0m 9 93 1018
23 15:00 東南東 2 100m 9 93 1017
23 14:41 南南東 2 200m 9 93 1017
23 14:38 南南東 2 200m 9 93 1017
23 14:12 南南西 2 100m 9 93 1017
23 14:03 不定 1 300m 9 93 1017
23 14:00 不定 1 400m 9 93 1017
23 13:48 不定 1 400m 9 93 1017
23 13:30 不定 1 200m 9 93 1017
23 13:16 不定 1 300m 9 93 1018
23 13:06 不定 1 300m 9 93 1018
23 13:00 不定 1 300m 9 93 1018 弱いしゅう雨 霧
23 12:16 不定 1 300m 9 87 1018
23 12:00 不定 1 200m 9 87 1018
23 11:51 南東 2 300m 9 87 1018
23 11:27 不定 1 400m 9 87 1018
23 11:20 不定 1 2000m 9 87 1018 散在した霧 もや
23 11:00 北西 2 3000m 9 87 1018 散在した霧 もや
23 10:49 西北西 2 3000m 9 87 1019 散在した霧 もや
23 10:29 西 2 3500m 9 87 1019 散在した霧 もや
23 10:00 西北西 2 5000m 8 87 1019 散在した霧 もや
23 09:24 不定 2 2500m 7 93 1019 散在した霧 弱い雨 もや
23 09:12 西北西 2 2000m 7 87 1019 散在した霧 もや
23 09:04 西北西 2 1500m 7 87 1019 散在した霧 もや
23 09:00 北西 2 800m 7 87 1019
23 08:35 西北西 2 400m 6 93 1019
23 08:19 不定 1 300m 6 93 1019
23 08:07 不定 1 400m 6 93 1018
23 08:00 不定 1 100m 6 93 1018
23 07:44 南東 2 100m 6 93 1018
23 07:37 東南東 2 100m 6 93 1018
23 07:29 南東 2 200m 6 93 1018
23 07:19 東南東 3 900m 6 93 1018 弱い雨 霧
23 07:14 東南東 4 1200m 7 87 1018 弱い雨 散在した霧 もや
23 07:00 不定 1 3500m 7 87 1018 弱い雨 散在した霧 もや
23 06:18 不定 2 4500m 6 93 1019 弱い雨 散在した霧 もや
23 06:10 2 4000m 6 93 1018 弱い雨 散在した霧 もや
22 22:00 東北東 3 3000m 4 93 1024 弱い雨 散在した霧 もや
22 21:00 3 3000m 4 87 1024 弱い雨 散在した霧 もや
22 20:00 東北東 3 3000m 4 87 1025 弱い雨 散在した霧 もや
22 19:00 東北東 2 4500m 4 87 1025 弱い雨 散在した霧 もや
22 18:21 東北東 3 4500m 4 87 1025 弱い雨 散在した霧 もや
22 18:00 3 7000m 4 87 1025 弱い雨 部分霧
22 17:00 東南東 2 8000m 5 75 1024 弱い雨
22 16:00 南東 2 10km以上 5 75 1024 弱い雨
22 15:00 南東 2 10km以上 6 70 1024 弱い雨
22 14:00 東南東 1 10km以上 6 61 1024
22 13:00 南東 2 10km以上 6 61 1025
22 12:00 東南東 2 10km以上 6 61 1026
22 11:00 2 10km以上 6 57 1026
22 10:00 2 10km以上 5 65 1027
RJOA 240000Z 35005KT 9999 FEW010 BKN120 10/06 Q1024
RJOA 232300Z 35003KT 310V070 9999 FEW003 BKN120 09/06 Q1024
RJOA 232200Z 35006KT 9999 FEW002 SCT050 BKN140 09/06 Q1024
RJOA 232110Z 31004KT 9999 FEW010 BKN140 09/07 Q1022 RMK 1CU010 6AC140 A3020
RJOA 231300Z VRB02KT 4000 BCFG BR FEW000 SCT010 BKN020 10/08 Q1021
RJOA 231200Z 01002KT 3000 BCFG BR FEW000 SCT006 BKN015 09/08 Q1020
RJOA 231139Z VRB02KT 2000 R10/1100VP1800D BCFG BR FEW000 SCT015 BKN040 09/08 Q1020 RMK 1ST000 3CU015 5SC040 A3013 FG E-S AND SW-W
RJOA 231129Z 12001KT 2000 R10/0500VP1800D BCFG BR FEW000 SCT003 BKN040 09/08 Q1020 RMK 1ST000 3ST003 5SC040 A3013 FG E-S AND SW-W
RJOA 231100Z VRB01KT 3000 R10/P1800N BCFG BR FEW000 SCT007 BKN040 09/08 Q1020
RJOA 231048Z VRB01KT 3000 R10/P1800N BCFG BR FEW000 SCT007 BKN040 09/08 Q1020 RMK 1ST000 3ST007 5SC040 A3013 FG E-SE AND SW-W
RJOA 231032Z VRB02KT 1600 R10/1200VP1800U BCFG BR FEW000 SCT001 BKN007 09/08 Q1020 RMK 1ST000 3ST001 5ST007 A3013 FG ALL QUAD
RJOA 231024Z VRB01KT 0800 R10/1000VP1800D FG FEW000 SCT001 BKN003 09/08 Q1020 RMK 1ST000 3ST001 5ST003 A3013
RJOA 231010Z 00000KT 0500 R10/0300V0700U FG FEW000 BKN001 BKN003 09/08 Q1020 RMK 1ST000 5ST001 6ST003 A3012
RJOA 231000Z 00000KT 0500 R10/0300V0550D FG FEW000 BKN001 BKN003 09/08 Q1020
RJOA 230941Z 13002KT 0200 R10/0300V0550N FG VV001 09/08 Q1019 RMK A3011
RJOA 230933Z 13003KT 100V190 0200 R10/0450V0700N FG VV001 09/08 Q1019 RMK A3010
RJOA 230930Z 12003KT 090V190 0300 R10/0500V0700N FG VV001 09/08 Q1019 RMK A30
RJOA 230900Z 00000KT 0100 R10/0450V0650N FG VV001 09/08 Q1019
RJOA 230842Z VRB01KT 0400 R10/0300V1400U FG VV001 09/08 Q1019 RMK A3009
RJOA 230812Z 14003KT 0300 R10/0300V0600U FG VV001 09/08 Q1018 RMK A3008
RJOA 230800Z 12003KT 0500 R10/0250V0400N FG FEW000 SCT001 BKN003 09/08 Q1018
RJOA 230750Z 13003KT 0500 R10/0500V1300D FG FEW000 SCT001 BKN003 09/08 Q1018 RMK 1ST000 3ST001 5ST003 A3007
RJOA 230737Z VRB02KT 0500 R10/0750VP1800U -SHRA FG FEW000 BKN001 BKN003 09/08 Q1018 RMK 1ST000 5ST001 6ST003 A3007
RJOA 230727Z 07003KT 340V100 0300 R10/0300V1200U FG VV001 09/08 Q1018 RMK A3007
RJOA 230700Z VRB02KT 0000 R10/0250V0300N FG VV001 09/08 Q1018
RJOA 230600Z 12004KT 0100 R10/0250V0300N FG VV001 09/08 Q1017
RJOA 230541Z 15003KT 0200 R10/0300V0750D FG VV001 09/08 Q1017 RMK A3006
RJOA 230538Z 16003KT 0200 R10/0300VP1800D FG VV001 09/08 Q1017 RMK A3006
RJOA 230512Z 21003KT 160V270 0100 R10/0800VP1800U FG VV001 09/08 Q1017 RMK A3005
RJOA 230503Z VRB02KT 0300 R10/0800VP1800D FG VV001 09/08 Q1017 RMK A3005
RJOA 230500Z VRB02KT 0400 R10/1100VP1800U FG VV001 09/08 Q1017
RJOA 230448Z VRB01KT 0400 R10/0350V1000U FG VV001 09/08 Q1017 RMK A3005
RJOA 230430Z VRB02KT 0200 R10/0300V0600N FG VV001 09/08 Q1017 RMK A3006
RJOA 230416Z VRB01KT 0300 R10/0300V0900U FG VV001 09/08 Q1018 RMK A3006
RJOA 230406Z VRB02KT 0300 R10/0300V1700D FG VV001 09/08 Q1018 RMK A3006
RJOA 230400Z VRB02KT 0300 R10/1300V1700U -SHRA FG VV001 09/08 Q1018
RJOA 230316Z VRB02KT 0300 R10/0700VP1800U FG VV001 09/07 Q1018 RMK A3007
RJOA 230300Z VRB01KT 0200 R10/0350V1200U FG VV001 09/07 Q1018
RJOA 230251Z 14003KT 110V200 0300 R10/0600VP1800D FG VV001 09/07 Q1018 RMK A3008
RJOA 230227Z VRB02KT 0400 R10/P1800N FG VV001 09/07 Q1018 RMK A3008 1200W
RJOA 230220Z VRB01KT 2000 R10/P1800N BCFG BR FEW000 SCT001 BKN002 09/07 Q1018 RMK 1ST000 3ST001 5ST002 A3008 1000SE FG E-S AND SW-W
RJOA 230200Z 31003KT 260V020 3000 BCFG BR FEW000 SCT003 BKN005 09/07 Q1018
RJOA 230149Z 30003KT 3000 BCFG BR FEW000 SCT003 BKN005 09/07 Q1019 RMK 1ST000 3ST003 5ST005 A3009 FG SE-S AND SW-W
RJOA 230129Z 28003KT 250V340 3500 BCFG BR FEW000 SCT004 BKN006 09/07 Q1019 RMK 1ST000 3ST004 5ST006 A3010 FG BANK SE-S AND SW-W
RJOA 230100Z 29003KT 260V320 5000 BCFG BR FEW000 SCT004 BKN007 08/06 Q1019
RJOA 230024Z VRB03KT 2500 R10/0750VP1800U -RA BCFG BR FEW000 SCT003 BKN009 07/06 Q1019 RMK 1ST000 3ST003 5ST009 A3010 FG ALL QUAD
RJOA 230012Z 30004KT 270V010 2000 R10/0550VP1800U BCFG BR FEW000 SCT003 BKN005 07/05 Q1019 RMK 1ST000 3ST003 5ST005 A3011 1000SW FG ALL QUAD
RJOA 230004Z 30003KT 1500 R10/0450V0750U BCFG BR FEW000 SCT001 BKN004 07/05 Q1019 RMK 1ST000 3ST001 5ST004 A3011 FG ALL QUAD
RJOA 230000Z 31003KT 0800 R10/0450V0650N FG FEW000 SCT001 BKN004 07/05 Q1019
RJOA 222335Z 30004KT 270V350 0400 R10/0300V1000D FG VV001 06/05 Q1019 RMK A3010
RJOA 222319Z VRB01KT 0300 R10/0700V1400U FG VV001 06/05 Q1019 RMK A3009
RJOA 222307Z VRB02KT 0400 R10/0300V0800U FG VV001 06/05 Q1018 RMK A3008
RJOA 222300Z VRB02KT 0100 R10/0250V0600U FG VV001 06/05 Q1018
RJOA 222244Z 13003KT 080V190 0100 R10/0200V0350N FG VV001 06/05 Q1018 RMK A3008
RJOA 222237Z 12003KT 090V170 0100 R10/0250V0900D FG VV001 06/05 Q1018 RMK A3008
RJOA 222229Z 13003KT 090V200 0200 R10/0550VP1800D FG VV001 06/05 Q1018 RMK A3009
RJOA 222219Z 12005KT 100V160 0900 R10/0150VP1800U -RA FG FEW000 SCT002 BKN005 06/05 Q1018 RMK 1ST000 3ST002 5ST005 A3008
RJOA 222214Z 12007KT 100V160 1200 R28/1600VP1800N -RA BCFG BR FEW000 SCT002 BKN007 07/05 Q1018 RMK 1ST000 3ST002 5ST007 A3007 FG ALL QUAD
RJOA 222200Z VRB02KT 3500 -RA BCFG BR FEW000 SCT007 BKN015 07/05 Q1018
RJOA 222118Z VRB03KT 4500 -RA BCFG BR FEW000 SCT007 BKN015 06/05 Q1019 RMK 1ST000 4ST007 6CU015 A3009 FG BANK SE-S AND SW-W
RJOA 222110Z 36004KT 330V060 4000 -RA BCFG BR FEW000 SCT004 BKN007 06/05 Q1018 RMK 1ST000 3ST004 6ST007 A3008 FG BANK SE-S AND SW-W
RJOA 221300Z 06006KT 3000 -RA BCFG BR FEW000 SCT015 BKN020 04/03 Q1024
RJOA 221200Z 08006KT 3000 -RA BCFG BR FEW000 SCT020 BKN030 04/02 Q1024
RJOA 221100Z 07005KT 3000 -RA BCFG BR FEW000 SCT030 BKN040 04/02 Q1025
RJOA 221000Z 06004KT 4500 -RA BCFG BR FEW000 SCT025 BKN035 04/02 Q1025
RJOA 220921Z 07005KT 4500 -RA BCFG BR FEW000 SCT030 BKN045 04/02 Q1025 RMK 1ST000 3CU030 6SC045 A3027 FG BANK SE-S AND W
RJOA 220900Z 10005KT 7000 -RA PRFG FEW000 SCT030 BKN040 04/02 Q1025
RJOA 220800Z 12004KT 8000 -RA FEW025 SCT030 BKN040 05/01 Q1024
RJOA 220700Z 13004KT 9999 -RA FEW020 BKN040 05/01 Q1024
RJOA 220600Z 13003KT 9999 -RA FEW020 BKN040 06/01 Q1024
RJOA 220500Z 12002KT 9999 FEW020 BKN040 06/M01 Q1024
RJOA 220400Z 13003KT 090V170 9999 FEW020 SCT040 BKN070 06/M01 Q1025
RJOA 220300Z 12003KT 090V170 9999 BKN040 BKN070 06/M01 Q1026
RJOA 220200Z 10004KT 070V130 CAVOK 06/M02 Q1026
RJOA 220100Z 10003KT 030V140 CAVOK 05/M01 Q1027